createdAt,value
2018-06-23T00:00:46.095Z,50.40
2018-06-23T00:03:14.027Z,42.00
2018-06-23T00:05:41.898Z,44.93
2018-06-23T00:08:10.074Z,40.70
2018-06-23T00:10:37.980Z,56.03
2018-06-23T00:13:05.915Z,50.30
2018-06-23T00:15:33.784Z,48.23
2018-06-23T00:18:01.744Z,50.23
2018-06-23T00:20:29.682Z,46.00
2018-06-23T00:22:57.683Z,53.97
2018-06-23T00:25:31.331Z,48.50
2018-06-23T00:27:59.184Z,44.33
2018-06-23T00:30:27.242Z,28.80
2018-06-23T00:32:55.150Z,29.07
2018-06-23T00:35:23.156Z,23.00
2018-06-23T00:37:51.048Z,31.33
2018-06-23T00:40:18.959Z,35.33
2018-06-23T00:42:46.910Z,39.13
2018-06-23T00:45:14.924Z,31.17
2018-06-23T00:47:42.830Z,49.90
2018-06-23T00:50:10.778Z,62.70
2018-06-23T00:52:38.657Z,53.87
2018-06-23T00:55:06.634Z,59.17
2018-06-23T00:57:34.504Z,59.33
2018-06-23T01:00:02.471Z,50.93
2018-06-23T01:02:30.423Z,52.03
2018-06-23T01:04:58.446Z,46.53
2018-06-23T01:07:26.358Z,39.87
2018-06-23T01:09:54.282Z,30.40
2018-06-23T01:12:22.257Z,34.47
2018-06-23T01:14:50.240Z,34.17
2018-06-23T01:17:18.204Z,37.90
2018-06-23T01:19:46.168Z,44.40
2018-06-23T01:22:14.065Z,32.97
2018-06-23T01:24:42.091Z,33.33
2018-06-23T01:27:10.029Z,35.57
2018-06-23T01:29:38.002Z,37.17
2018-06-23T01:32:05.956Z,33.40
2018-06-23T01:34:33.938Z,34.43
2018-06-23T01:37:01.888Z,43.23
2018-06-23T01:39:29.943Z,29.83
2018-06-23T01:41:57.864Z,25.70
2018-06-23T01:44:25.884Z,31.97
2018-06-23T01:46:54.125Z,31.47
2018-06-23T01:49:22.119Z,39.43
2018-06-23T01:51:49.997Z,28.87
2018-06-23T01:54:17.899Z,33.63
2018-06-23T01:56:45.772Z,32.47
2018-06-23T01:59:13.764Z,39.20
2018-06-23T02:01:41.681Z,32.90
2018-06-23T02:04:09.614Z,33.23
2018-06-23T02:06:37.485Z,25.90
2018-06-23T02:09:07.686Z,37.50
2018-06-23T02:11:35.582Z,33.60
2018-06-23T02:14:09.099Z,41.97
2018-06-23T02:16:42.480Z,36.07
2018-06-23T02:19:15.862Z,26.20
2018-06-23T02:21:49.272Z,27.00
2018-06-23T02:24:22.874Z,35.27
2018-06-23T02:26:57.437Z,36.80
2018-06-23T02:29:31.065Z,41.30
2018-06-23T02:32:04.455Z,47.03
2018-06-23T02:34:37.963Z,43.63
2018-06-23T02:37:06.003Z,47.97
2018-06-23T02:39:34.057Z,63.27
2018-06-23T02:42:02.080Z,59.00
2018-06-23T02:44:30.124Z,61.83
2018-06-23T02:46:58.053Z,65.30
2018-06-23T02:49:25.949Z,59.80
2018-06-23T02:51:53.870Z,58.57
2018-06-23T02:54:21.852Z,68.47
2018-06-23T02:56:49.771Z,61.63
2018-06-23T02:59:19.254Z,63.53
2018-06-23T03:01:47.992Z,62.03
2018-06-23T03:04:21.290Z,63.30
2018-06-23T03:06:49.202Z,59.30
2018-06-23T03:09:17.528Z,57.13
2018-06-23T03:11:45.523Z,78.60
2018-06-23T03:14:13.564Z,70.77
2018-06-23T03:16:41.492Z,63.93
2018-06-23T03:19:09.463Z,70.53
2018-06-23T03:21:37.369Z,73.40
2018-06-23T03:24:05.374Z,74.90
2018-06-23T03:26:33.289Z,75.53
2018-06-23T03:29:01.384Z,80.67
2018-06-23T03:31:29.267Z,80.67
2018-06-23T03:33:57.311Z,78.07
2018-06-23T03:36:25.207Z,79.27
2018-06-23T03:38:53.266Z,80.83
2018-06-23T03:41:21.166Z,90.30
2018-06-23T03:43:49.439Z,90.40
2018-06-23T03:46:17.297Z,98.87
2018-06-23T03:48:45.504Z,103.37
2018-06-23T03:51:13.430Z,111.03
2018-06-23T03:53:42.390Z,72.40
2018-06-23T03:56:10.357Z,117.77
2018-06-23T03:58:38.289Z,66.40
2018-06-23T04:01:07.956Z,56.97
2018-06-23T04:03:36.233Z,57.20
2018-06-23T04:06:04.206Z,55.93
2018-06-23T04:08:32.717Z,76.23
2018-06-23T04:11:00.630Z,80.73
2018-06-23T04:13:28.583Z,96.00
2018-06-23T04:15:56.490Z,68.77
2018-06-23T04:18:24.388Z,60.40
2018-06-23T04:20:52.322Z,58.33
2018-06-23T04:23:20.351Z,50.40
2018-06-23T04:25:48.269Z,38.50
2018-06-23T04:28:16.343Z,33.13
2018-06-23T04:30:44.258Z,24.70
2018-06-23T04:33:12.238Z,25.97
2018-06-23T04:35:40.136Z,20.27
2018-06-23T04:38:08.178Z,17.07
2018-06-23T04:40:36.124Z,18.17
2018-06-23T04:43:04.382Z,19.20
2018-06-23T04:45:32.276Z,17.60
2018-06-23T04:48:00.240Z,17.43
2018-06-23T04:50:28.303Z,19.50
2018-06-23T04:52:56.447Z,20.67
2018-06-23T04:55:24.196Z,22.97
2018-06-23T04:57:52.113Z,12.97
2018-06-23T05:00:24.591Z,18.43
2018-06-23T05:02:53.041Z,14.50
2018-06-23T05:05:20.953Z,13.07
2018-06-23T05:07:48.953Z,18.93
2018-06-23T05:10:16.868Z,10.87
2018-06-23T05:12:44.810Z,9.00
2018-06-23T05:15:12.693Z,13.63
2018-06-23T05:17:40.639Z,19.70
2018-06-23T05:20:08.537Z,15.30
2018-06-23T05:22:36.548Z,16.13
2018-06-23T05:25:04.743Z,16.00
2018-06-23T05:27:32.790Z,14.37
2018-06-23T05:30:00.658Z,12.23
2018-06-23T05:32:28.596Z,15.83
2018-06-23T05:34:56.476Z,15.67
2018-06-23T05:37:24.445Z,17.30
2018-06-23T05:39:52.337Z,16.43
2018-06-23T05:42:20.300Z,14.43
2018-06-23T05:44:48.175Z,11.20
2018-06-23T05:47:16.197Z,10.07
2018-06-23T05:49:44.112Z,8.97
2018-06-23T05:52:12.062Z,10.23
2018-06-23T05:54:39.930Z,12.83
2018-06-23T05:57:07.914Z,10.73
2018-06-23T05:59:35.817Z,10.63
2018-06-23T06:02:03.911Z,11.53
2018-06-23T06:04:31.802Z,15.43
2018-06-23T06:06:59.766Z,9.03
2018-06-23T06:09:27.690Z,11.53
2018-06-23T06:11:55.674Z,13.43
2018-06-23T06:14:23.669Z,8.00
2018-06-23T06:17:24.056Z,10.10
2018-06-23T06:19:53.694Z,12.07
2018-06-23T06:22:22.520Z,12.35
2018-06-23T06:24:50.441Z,8.38
2018-06-23T06:27:18.367Z,10.08
2018-06-23T06:29:46.264Z,9.55
2018-06-23T06:32:14.193Z,12.18
2018-06-23T06:34:42.117Z,12.98
2018-06-23T06:37:10.032Z,17.73
2018-06-23T06:39:39.001Z,15.10
2018-06-23T06:42:06.876Z,10.83
2018-06-23T06:44:34.854Z,11.12
2018-06-23T06:47:02.727Z,14.13
2018-06-23T06:49:33.352Z,5.25
2018-06-23T06:52:01.284Z,10.45
2018-06-23T06:54:31.356Z,10.15
2018-06-23T06:56:59.310Z,9.30
2018-06-23T06:59:27.275Z,10.35
2018-06-23T07:01:55.194Z,5.95
2018-06-23T07:04:23.198Z,7.45
2018-06-23T07:06:51.115Z,4.67
2018-06-23T07:09:19.106Z,6.72
2018-06-23T07:11:47.077Z,6.90
2018-06-23T07:14:15.094Z,15.50
2018-06-23T07:16:43.045Z,9.25
2018-06-23T07:19:11.003Z,6.17
2018-06-23T07:21:38.951Z,2.60
2018-06-23T07:24:07.144Z,5.20
2018-06-23T07:26:35.749Z,6.37
2018-06-23T07:29:04.653Z,4.65
2018-06-23T07:31:32.751Z,3.77
2018-06-23T07:34:00.858Z,6.10
2018-06-23T07:36:29.097Z,7.10
2018-06-23T07:38:57.143Z,7.00
2018-06-23T07:41:25.098Z,7.33
2018-06-23T07:43:53.133Z,7.78
2018-06-23T07:46:21.123Z,7.37
2018-06-23T07:48:49.063Z,4.53
2018-06-23T07:51:16.991Z,2.25
2018-06-23T07:53:44.974Z,4.15
2018-06-23T07:56:12.980Z,2.15
2018-06-23T07:58:40.975Z,2.30
2018-06-23T08:01:08.893Z,2.62
2018-06-23T08:03:37.464Z,3.27
2018-06-23T08:06:05.736Z,3.02
2018-06-23T08:08:33.728Z,1.67
2018-06-23T08:11:01.647Z,2.10
2018-06-23T08:13:29.604Z,1.62
2018-06-23T08:15:58.572Z,2.98
2018-06-23T08:18:26.541Z,3.10
2018-06-23T08:20:54.435Z,3.75
2018-06-23T08:23:22.389Z,2.12
2018-06-23T08:25:50.345Z,3.65
2018-06-23T08:28:18.340Z,1.52
2018-06-23T08:30:46.334Z,2.22
2018-06-23T08:33:14.398Z,2.27
2018-06-23T08:36:09.016Z,2.15
2018-06-23T08:38:49.693Z,2.00
2018-06-23T08:41:17.712Z,1.15
2018-06-23T08:43:45.688Z,0.75
2018-06-23T08:46:13.659Z,1.42
2018-06-23T08:48:54.036Z,1.22
2018-06-23T08:51:21.942Z,0.70
2018-06-23T08:54:10.670Z,4.40
2018-06-23T08:56:52.184Z,1.02
2018-06-23T08:59:27.412Z,2.55
2018-06-23T09:01:55.380Z,2.50
2018-06-23T09:04:58.130Z,1.67
2018-06-23T09:07:26.068Z,4.12
2018-06-23T09:09:54.074Z,3.37
2018-06-23T09:12:21.922Z,2.00
2018-06-23T09:14:49.711Z,0.90
2018-06-23T09:17:17.733Z,2.10
2018-06-23T09:19:45.566Z,2.77
2018-06-23T09:22:13.379Z,2.00
2018-06-23T09:24:41.183Z,2.77
2018-06-23T09:27:08.942Z,0.95
2018-06-23T09:29:36.810Z,1.98
2018-06-23T09:32:04.641Z,2.67
2018-06-23T09:34:32.511Z,1.02
2018-06-23T09:37:00.278Z,2.22
2018-06-23T09:39:28.075Z,0.75
2018-06-23T09:41:55.872Z,3.37
2018-06-23T09:44:32.143Z,2.08
2018-06-23T09:47:00.034Z,2.27
2018-06-23T09:49:42.467Z,3.30
2018-06-23T09:52:10.462Z,1.60
2018-06-23T09:54:38.766Z,1.15
2018-06-23T09:57:07.277Z,1.10
2018-06-23T09:59:39.120Z,2.17
2018-06-23T10:02:07.201Z,1.50
2018-06-23T10:04:35.140Z,3.02
2018-06-23T10:07:03.338Z,0.60
2018-06-23T10:09:31.279Z,1.82
2018-06-23T10:11:59.271Z,2.75
2018-06-23T10:14:27.176Z,2.08
2018-06-23T10:16:55.246Z,2.02
2018-06-23T10:19:29.590Z,1.52
2018-06-23T10:22:03.951Z,2.45
2018-06-23T10:24:46.911Z,1.80
2018-06-23T10:27:15.243Z,5.40
2018-06-23T10:29:43.218Z,4.83
2018-06-23T10:32:11.146Z,1.45
2018-06-23T10:34:39.208Z,1.37
2018-06-23T10:37:07.128Z,0.75
2018-06-23T10:39:36.329Z,3.15
2018-06-23T10:42:16.992Z,1.45
2018-06-23T10:44:45.003Z,1.92
2018-06-23T10:47:12.939Z,2.00
2018-06-23T10:49:40.997Z,1.10
2018-06-23T10:52:09.036Z,0.80
2018-06-23T10:54:57.964Z,4.15
2018-06-23T10:57:26.141Z,2.45
2018-06-23T10:59:54.037Z,3.98
2018-06-23T11:04:50.834Z,2.12
2018-06-23T11:07:18.755Z,4.08
2018-06-23T11:09:46.571Z,1.42
2018-06-23T11:12:14.519Z,1.37
2018-06-23T11:14:42.280Z,2.08
2018-06-23T11:17:10.275Z,2.52
2018-06-23T11:19:38.086Z,4.22
2018-06-23T11:22:06.097Z,0.90
2018-06-23T11:24:33.997Z,2.05
2018-06-23T11:27:01.948Z,2.12
2018-06-23T11:29:29.792Z,2.58
2018-06-23T11:31:57.623Z,1.85
2018-06-23T11:34:25.446Z,1.30
2018-06-23T11:36:53.257Z,2.65
2018-06-23T11:39:21.229Z,1.30
2018-06-23T11:41:48.958Z,4.55
2018-06-23T11:44:16.979Z,1.47
2018-06-23T11:46:44.720Z,2.87
2018-06-23T11:49:12.785Z,0.70
2018-06-23T11:51:40.556Z,1.85
2018-06-23T11:54:16.418Z,2.15
2018-06-23T11:56:44.313Z,1.95
2018-06-23T11:59:12.264Z,1.47
2018-06-23T12:01:40.278Z,1.98
2018-06-23T12:04:08.189Z,8.58
2018-06-23T12:06:36.147Z,8.38
2018-06-23T12:09:17.454Z,2.77
2018-06-23T12:11:45.258Z,3.02
2018-06-23T12:14:13.193Z,1.50
2018-06-23T12:16:57.172Z,2.72
2018-06-23T12:19:25.029Z,5.50
2018-06-23T12:21:52.918Z,1.17
2018-06-23T12:24:20.825Z,1.80
2018-06-23T12:26:48.672Z,3.33
2018-06-23T12:29:16.482Z,1.47
2018-06-23T12:31:44.342Z,1.87
2018-06-23T12:34:12.142Z,2.55
2018-06-23T12:36:40.035Z,1.15
2018-06-23T12:39:09.049Z,6.58
2018-06-23T12:41:36.990Z,5.37
2018-06-23T12:44:04.867Z,2.22
2018-06-23T12:46:32.755Z,1.52
2018-06-23T12:49:00.505Z,4.42
2018-06-23T12:51:28.333Z,2.08
2018-06-23T12:53:56.207Z,5.67
2018-06-23T12:56:23.995Z,1.12
2018-06-23T12:58:51.772Z,1.55
2018-06-23T13:01:27.091Z,4.15
2018-06-23T13:03:55.050Z,5.70
2018-06-23T13:06:22.943Z,2.58
2018-06-23T13:08:50.844Z,2.87
2018-06-23T13:11:32.046Z,2.85
2018-06-23T13:13:59.944Z,2.67
2018-06-23T13:16:27.814Z,1.82
2018-06-23T13:19:09.427Z,4.05
2018-06-23T13:21:37.295Z,3.33
2018-06-23T13:24:05.183Z,3.30
2018-06-23T13:26:53.538Z,2.50
2018-06-23T13:29:21.427Z,4.33
2018-06-23T13:31:58.996Z,3.33
2018-06-23T13:34:26.901Z,3.42
2018-06-23T13:36:54.492Z,5.47
2018-06-23T13:39:22.368Z,6.40
2018-06-23T13:41:50.114Z,2.85
2018-06-23T13:44:17.936Z,6.08
2018-06-23T13:46:45.719Z,1.30
2018-06-23T13:49:13.583Z,2.90
2018-06-23T13:51:41.324Z,3.70
2018-06-23T13:54:09.216Z,3.55
2018-06-23T13:56:37.014Z,5.08
2018-06-23T13:59:04.842Z,1.52
2018-06-23T14:01:32.595Z,1.98
2018-06-23T14:04:01.474Z,3.45
2018-06-23T14:06:39.778Z,4.78
2018-06-23T14:09:09.205Z,4.22
2018-06-23T14:14:12.995Z,3.90
2018-06-23T14:16:40.902Z,5.97
2018-06-23T14:19:08.949Z,3.40
2018-06-23T14:21:49.825Z,3.20
2018-06-23T14:24:17.863Z,4.45
2018-06-23T14:27:02.777Z,3.83
2018-06-23T14:29:30.696Z,3.10
2018-06-23T14:31:58.862Z,6.87
2018-06-23T14:34:26.451Z,3.33
2018-06-23T14:36:54.353Z,6.10
2018-06-23T14:39:22.142Z,3.98
2018-06-23T14:41:49.954Z,2.47
2018-06-23T14:44:17.769Z,3.50
2018-06-23T14:46:45.535Z,5.85
2018-06-23T14:49:13.305Z,3.83
2018-06-23T14:51:41.104Z,3.12
2018-06-23T14:54:08.903Z,3.70
2018-06-23T14:56:36.894Z,5.53
2018-06-23T14:59:04.698Z,6.20
2018-06-23T15:01:32.605Z,4.12
2018-06-23T15:04:00.476Z,2.42
2018-06-23T15:06:28.331Z,4.55
2018-06-23T15:09:06.855Z,3.20
2018-06-23T15:11:53.562Z,2.17
2018-06-23T15:14:21.487Z,2.90
2018-06-23T15:16:49.403Z,2.33
2018-06-23T15:19:17.315Z,1.65
2018-06-23T15:22:00.638Z,4.70
2018-06-23T15:24:28.452Z,0.80
2018-06-23T15:26:56.345Z,1.32
2018-06-23T15:29:24.128Z,2.00
2018-06-23T15:31:51.939Z,0.70
2018-06-23T15:34:19.714Z,2.27
2018-06-23T15:36:47.654Z,1.98
2018-06-23T15:39:15.428Z,1.25
2018-06-23T15:41:43.269Z,0.95
2018-06-23T15:44:11.039Z,2.55
2018-06-23T15:46:38.873Z,1.60
2018-06-23T15:49:07.602Z,3.30
2018-06-23T15:51:35.579Z,2.35
2018-06-23T15:54:03.607Z,0.68
2018-06-23T15:56:31.469Z,0.85
2018-06-23T15:58:59.300Z,1.95
2018-06-23T16:01:27.121Z,1.05
2018-06-23T16:03:55.076Z,3.35
2018-06-23T16:06:22.883Z,4.00
2018-06-23T16:08:50.786Z,2.05
2018-06-23T16:11:18.537Z,4.40
2018-06-23T16:13:46.386Z,1.52
2018-06-23T16:16:14.319Z,1.20
2018-06-23T16:18:42.323Z,3.65
2018-06-23T16:21:10.214Z,1.75
2018-06-23T16:23:38.266Z,2.80
2018-06-23T16:26:06.196Z,3.20
2018-06-23T16:28:34.280Z,1.75
2018-06-23T16:31:02.155Z,1.62
2018-06-23T16:33:30.156Z,3.30
2018-06-23T16:35:58.070Z,2.05
2018-06-23T16:38:26.111Z,4.33
2018-06-23T16:40:54.171Z,4.28
2018-06-23T16:43:22.197Z,1.98
2018-06-23T16:46:04.327Z,4.35
2018-06-23T16:48:46.714Z,3.85
2018-06-23T16:51:14.648Z,14.87
2018-06-23T16:53:42.550Z,4.00
2018-06-23T16:56:10.472Z,2.45
2018-06-23T16:58:38.404Z,4.05
2018-06-23T17:01:06.328Z,4.90
2018-06-23T17:03:34.309Z,5.25
2018-06-23T17:06:02.204Z,2.67
2018-06-23T17:08:30.068Z,3.55
2018-06-23T17:10:57.966Z,5.92
2018-06-23T17:13:38.629Z,3.95
2018-06-23T17:16:06.472Z,9.98
2018-06-23T17:21:12.631Z,33.08
2018-06-23T17:23:40.512Z,3.60
2018-06-23T17:26:08.433Z,2.83
2018-06-23T17:28:49.463Z,2.10
2018-06-23T17:31:30.135Z,2.60
2018-06-23T17:34:05.924Z,2.52
2018-06-23T17:36:33.798Z,3.00
2018-06-23T17:39:10.194Z,6.70
2018-06-23T17:41:38.258Z,4.47
2018-06-23T17:44:06.197Z,8.68
2018-06-23T17:46:42.415Z,2.30
2018-06-23T17:49:37.918Z,6.62
2018-06-23T17:52:05.831Z,2.62
2018-06-23T17:54:33.719Z,6.62
2018-06-23T17:57:01.639Z,5.42
2018-06-23T17:59:53.806Z,2.45
2018-06-23T18:02:21.529Z,2.52
2018-06-23T18:04:49.368Z,2.22
2018-06-23T18:07:17.237Z,7.03
2018-06-23T18:09:45.024Z,3.52
2018-06-23T18:12:12.975Z,5.92
2018-06-23T18:14:40.704Z,4.08
2018-06-23T18:17:08.623Z,8.05
2018-06-23T18:19:36.435Z,8.08
2018-06-23T18:22:05.250Z,6.37
2018-06-23T18:24:33.152Z,4.60
2018-06-23T18:27:02.031Z,4.20
2018-06-23T18:29:30.021Z,4.62
2018-06-23T18:31:57.970Z,4.97
2018-06-23T18:34:25.887Z,4.15
2018-06-23T18:36:53.764Z,3.83
2018-06-23T18:39:21.682Z,5.12
2018-06-23T18:41:50.691Z,4.70
2018-06-23T18:44:18.645Z,3.92
2018-06-23T18:47:16.630Z,3.35
2018-06-23T18:49:44.322Z,5.58
2018-06-23T18:52:12.151Z,8.75
2018-06-23T18:54:39.903Z,9.50
2018-06-23T18:57:07.704Z,6.10
2018-06-23T18:59:35.415Z,30.65
2018-06-23T19:02:03.301Z,7.10
2018-06-23T19:04:31.040Z,6.47
2018-06-23T19:06:58.891Z,5.95
2018-06-23T19:09:26.805Z,9.70
2018-06-23T19:11:54.554Z,6.72
2018-06-23T19:14:22.306Z,7.55
2018-06-23T19:16:50.308Z,43.15
2018-06-23T19:19:18.079Z,8.50
2018-06-23T19:21:45.910Z,10.20
2018-06-23T19:24:13.739Z,6.33
2018-06-23T19:26:41.564Z,8.45
2018-06-23T19:29:09.487Z,8.40
2018-06-23T19:31:37.464Z,4.85
2018-06-23T19:34:05.628Z,8.80
2018-06-23T19:36:33.584Z,7.70
2018-06-23T19:39:01.696Z,5.97
2018-06-23T19:41:33.459Z,7.97
2018-06-23T19:44:01.519Z,4.05
2018-06-23T19:46:36.500Z,9.93
2018-06-23T19:49:04.422Z,12.68
2018-06-23T19:51:32.316Z,6.83
2018-06-23T19:54:00.190Z,7.05
2018-06-23T19:56:28.024Z,10.08
2018-06-23T19:58:55.856Z,4.05
2018-06-23T20:01:23.762Z,6.28
2018-06-23T20:03:51.546Z,9.18
2018-06-23T20:06:19.490Z,8.68
2018-06-23T20:08:47.279Z,10.20
2018-06-23T20:11:15.388Z,11.53
2018-06-23T20:13:43.216Z,7.30
2018-06-23T20:16:11.185Z,5.20
2018-06-23T20:18:38.989Z,12.35
2018-06-23T20:21:06.864Z,11.97
2018-06-23T20:23:34.930Z,14.70
2018-06-23T20:26:02.759Z,15.93
2018-06-23T20:28:30.726Z,7.62
2018-06-23T20:30:58.568Z,10.60
2018-06-23T20:33:37.066Z,43.65
2018-06-23T20:36:05.078Z,125.80
2018-06-23T20:38:33.114Z,23.80
2018-06-23T20:41:01.107Z,29.60
2018-06-23T20:43:28.983Z,51.05
2018-06-23T20:45:56.962Z,121.13
2018-06-23T20:48:24.913Z,156.75
2018-06-23T20:50:52.778Z,40.23
2018-06-23T20:53:46.652Z,47.15
2018-06-23T20:56:14.665Z,24.55
2018-06-23T20:58:56.994Z,20.88
2018-06-23T21:01:24.990Z,41.15
2018-06-23T21:04:07.007Z,33.50
2018-06-23T21:06:34.883Z,18.60
2018-06-23T21:09:03.422Z,14.40
2018-06-23T21:11:57.758Z,18.73
2018-06-23T21:14:27.086Z,13.35
2018-06-23T21:16:55.095Z,7.28
2018-06-23T21:19:25.025Z,13.13
2018-06-23T21:22:00.738Z,14.98
2018-06-23T21:24:28.660Z,20.05
2018-06-23T21:26:56.631Z,18.87
2018-06-23T21:29:48.501Z,49.38
2018-06-23T21:32:16.337Z,34.00
2018-06-23T21:34:44.166Z,39.07
2018-06-23T21:39:37.504Z,17.20
2018-06-23T21:42:05.492Z,17.87
2018-06-23T21:44:33.410Z,20.45
2018-06-23T21:47:01.402Z,20.60
2018-06-23T21:49:29.286Z,18.33
2018-06-23T21:51:58.283Z,19.00
2018-06-23T21:54:26.185Z,23.27
2018-06-23T21:56:54.168Z,25.12
2018-06-23T21:59:22.040Z,21.42
2018-06-23T22:01:49.957Z,22.90
2018-06-23T22:04:17.848Z,25.30
2018-06-23T22:06:45.791Z,23.57
2018-06-23T22:09:13.588Z,22.43
2018-06-23T22:11:41.428Z,25.25
2018-06-23T22:14:09.250Z,29.00
2018-06-23T22:16:37.301Z,26.33
2018-06-23T22:19:05.037Z,29.87
2018-06-23T22:21:32.888Z,22.13
2018-06-23T22:24:00.690Z,26.87
2018-06-23T22:26:28.510Z,27.47
2018-06-23T22:28:56.271Z,23.40
2018-06-23T22:31:24.141Z,31.60
2018-06-23T22:36:25.842Z,30.90
2018-06-23T22:38:53.677Z,29.57
2018-06-23T22:41:21.515Z,31.50
2018-06-23T22:43:49.277Z,28.67
2018-06-23T22:46:17.224Z,25.30
2018-06-23T22:48:45.100Z,35.13
2018-06-23T22:51:12.893Z,28.70
2018-06-23T22:53:40.751Z,26.00
2018-06-23T22:56:08.632Z,23.33
2018-06-23T22:58:36.453Z,27.02
2018-06-23T23:01:04.416Z,22.93
2018-06-23T23:03:32.184Z,28.20
2018-06-23T23:06:00.027Z,17.90
2018-06-23T23:08:27.817Z,21.40
2018-06-23T23:10:55.574Z,17.73
2018-06-23T23:13:58.968Z,23.20
2018-06-23T23:16:26.813Z,24.67
2018-06-23T23:18:54.718Z,19.37
2018-06-23T23:21:22.625Z,26.00
2018-06-23T23:23:50.573Z,19.90
2018-06-23T23:26:18.462Z,22.07
2018-06-23T23:28:46.252Z,17.27
2018-06-23T23:31:14.087Z,16.97
2018-06-23T23:33:41.849Z,21.70
2018-06-23T23:36:09.718Z,19.87
2018-06-23T23:38:37.450Z,19.37
2018-06-23T23:41:05.345Z,14.07
2018-06-23T23:43:33.120Z,19.47
2018-06-23T23:46:00.960Z,15.90
2018-06-23T23:48:29.265Z,11.43
2018-06-23T23:50:57.140Z,14.93
2018-06-23T23:53:24.939Z,18.03
2018-06-23T23:55:52.791Z,15.87
2018-06-23T23:58:24.684Z,19.67
